Time;durP1;ratioP1;P1;durP2;ratioP2;P2;SDS_P1;SDS_P2;PMS_P1;PMS_P2;Temp;Humidity;BMP_temperature;BMP_pressure;BME280_temperature;BME280_humidity;BME280_pressure;Samples;Min_cycle;Max_cycle;Signal;HPM_P1;HPM_P2
2020/12/26 00:02:12;;;;;;;20.83;14.40;;;2.40;1.00;;;;;;5011662;28;20421;-67
2020/12/26 00:04:38;;;;;;;18.58;14.00;;;2.40;1.00;;;;;;5011594;28;20413;-67
2020/12/26 00:07:05;;;;;;;18.13;13.50;;;2.40;9.40;;;;;;5011301;28;20423;-67
2020/12/26 00:09:31;;;;;;;16.60;13.82;;;2.40;22.50;;;;;;5011458;28;20771;-66
2020/12/26 00:11:58;;;;;;;19.27;14.20;;;2.40;3.50;;;;;;5011094;28;20417;-67
2020/12/26 00:14:27;;;;;;;15.20;13.60;;;2.50;10.30;;;;;;5011356;28;20944;-67
2020/12/26 00:16:54;;;;;;;16.02;13.23;;;2.50;11.00;;;;;;5011258;28;20424;-67
2020/12/26 00:19:22;;;;;;;17.58;13.45;;;2.60;22.20;;;;;;5010758;28;21395;-67
2020/12/26 00:21:48;;;;;;;21.58;14.07;;;2.60;1.00;;;;;;5011245;28;20913;-67
2020/12/26 00:24:14;;;;;;;20.52;13.85;;;2.60;1.00;;;;;;5011092;28;20424;-67
2020/12/26 00:26:40;;;;;;;18.80;14.03;;;2.60;1.00;;;;;;5011136;28;20447;-67
2020/12/26 00:29:06;;;;;;;18.15;14.60;;;2.50;1.00;;;;;;5011923;28;20428;-67
2020/12/26 00:31:32;;;;;;;19.30;14.02;;;2.50;1.00;;;;;;5015199;28;20413;-67
2020/12/26 00:33:59;;;;;;;21.15;14.35;;;2.60;1.00;;;;;;5015074;28;20428;-67
2020/12/26 00:36:26;;;;;;;18.90;13.75;;;2.60;1.00;;;;;;5014744;28;20828;-67
2020/12/26 00:38:52;;;;;;;19.90;14.75;;;2.60;1.00;;;;;;5016385;28;20840;-67
2020/12/26 00:41:18;;;;;;;19.08;15.82;;;2.60;1.00;;;;;;5015170;28;20423;-67
2020/12/26 00:43:44;;;;;;;18.00;14.90;;;2.50;1.00;;;;;;5015337;28;20782;-67
2020/12/26 00:46:10;;;;;;;19.50;15.90;;;2.50;1.00;;;;;;5015067;28;20427;-67
2020/12/26 00:48:36;;;;;;;23.35;16.33;;;2.60;8.40;;;;;;5015117;28;20836;-67
2020/12/26 00:51:03;;;;;;;21.27;16.48;;;2.50;10.00;;;;;;5014814;28;20459;-66
2020/12/26 00:53:29;;;;;;;22.83;17.13;;;2.60;31.10;;;;;;5014613;28;20412;-67
2020/12/26 00:55:56;;;;;;;18.55;16.40;;;2.60;22.10;;;;;;5014734;28;20412;-67
2020/12/26 00:58:22;;;;;;;22.67;17.15;;;2.50;16.90;;;;;;5014554;28;20424;-67
2020/12/26 01:00:48;;;;;;;23.25;17.50;;;2.50;41.30;;;;;;5014652;28;20420;-67
2020/12/26 01:03:14;;;;;;;23.80;17.90;;;2.60;62.50;;;;;;5014232;28;20443;-67
2020/12/26 01:05:42;;;;;;;20.87;18.23;;;2.50;61.30;;;;;;5014054;28;20420;-67
2020/12/26 01:08:08;;;;;;;23.13;18.10;;;2.50;59.70;;;;;;5014696;28;20427;-67
2020/12/26 01:10:35;;;;;;;22.30;17.20;;;2.50;96.80;;;;;;5017742;28;20906;-67
2020/12/26 01:13:01;;;;;;;21.13;17.45;;;2.50;99.90;;;;;;5014497;28;20413;-67
2020/12/26 01:15:27;;;;;;;21.95;17.15;;;2.60;99.90;;;;;;5014202;28;20455;-67
2020/12/26 01:17:53;;;;;;;24.70;17.98;;;2.50;80.50;;;;;;5014240;28;20417;-67
2020/12/26 01:20:19;;;;;;;23.67;18.02;;;2.50;99.90;;;;;;5014417;28;20417;-67
2020/12/26 01:22:45;;;;;;;23.10;18.85;;;2.60;99.90;;;;;;5014363;28;20425;-67
2020/12/26 01:25:12;;;;;;;25.90;18.40;;;2.50;99.90;;;;;;5014766;28;20412;-67
2020/12/26 01:27:39;;;;;;;23.42;19.00;;;2.50;99.90;;;;;;5014123;28;20467;-67
2020/12/26 01:30:06;;;;;;;20.45;17.63;;;2.50;99.90;;;;;;5013789;28;20494;-67
2020/12/26 01:32:33;;;;;;;21.90;16.67;;;2.50;99.90;;;;;;5014251;28;20498;-67
2020/12/26 01:35:00;;;;;;;20.52;16.60;;;2.60;99.90;;;;;;5013822;28;20778;-67
2020/12/26 01:37:26;;;;;;;20.88;17.30;;;2.60;99.90;;;;;;5013937;28;21075;-67
2020/12/26 01:39:53;;;;;;;19.23;15.65;;;2.40;99.90;;;;;;5013756;28;20421;-67
2020/12/26 01:42:19;;;;;;;17.30;14.80;;;2.50;99.90;;;;;;5012919;28;20423;-67
2020/12/26 01:44:46;;;;;;;19.73;14.20;;;2.60;99.90;;;;;;5014202;28;20423;-66
2020/12/26 01:47:13;;;;;;;16.27;14.68;;;2.60;99.90;;;;;;5013701;28;20421;-67
2020/12/26 01:49:40;;;;;;;16.42;14.77;;;2.60;99.90;;;;;;5013434;28;20425;-66
2020/12/26 01:52:09;;;;;;;17.30;14.77;;;2.60;99.90;;;;;;5013798;28;20451;-67
2020/12/26 01:54:36;;;;;;;15.30;13.70;;;2.60;99.90;;;;;;5013633;28;20495;-67
2020/12/26 01:57:04;;;;;;;17.88;13.90;;;2.60;99.90;;;;;;5013556;28;20421;-66
2020/12/26 01:59:30;;;;;;;16.20;12.60;;;2.60;99.90;;;;;;5013549;28;20751;-67
2020/12/26 02:01:57;;;;;;;15.43;12.43;;;2.70;99.90;;;;;;5013651;28;20412;-67
2020/12/26 02:04:24;;;;;;;13.43;12.05;;;2.70;99.90;;;;;;5013549;28;20417;-67
2020/12/26 02:06:55;;;;;;;14.35;11.48;;;2.70;99.70;;;;;;5013478;28;20478;-67
2020/12/26 02:09:24;;;;;;;13.95;12.45;;;2.60;96.50;;;;;;5013410;28;20506;-67
2020/12/26 02:11:50;;;;;;;12.90;11.60;;;2.70;97.40;;;;;;5013926;28;20427;-67
2020/12/26 02:14:16;;;;;;;15.60;11.77;;;2.50;53.80;;;;;;5014181;28;20532;-67
2020/12/26 02:16:47;;;;;;;13.27;11.73;;;2.60;92.80;;;;;;5013096;28;20755;-67
2020/12/26 02:19:16;;;;;;;13.20;11.80;;;2.60;99.20;;;;;;5013471;28;20882;-66
2020/12/26 02:21:43;;;;;;;14.43;12.73;;;2.60;94.20;;;;;;5013548;28;20490;-68
2020/12/26 02:24:10;;;;;;;16.13;12.18;;;2.60;91.10;;;;;;5013292;28;20491;-67
2020/12/26 02:26:37;;;;;;;13.27;11.98;;;2.60;72.10;;;;;;5012881;28;20455;-67
2020/12/26 02:29:03;;;;;;;15.03;13.27;;;2.60;30.50;;;;;;5013138;28;20553;-67
2020/12/26 02:31:29;;;;;;;14.95;12.30;;;2.60;78.90;;;;;;5013271;28;20420;-67
2020/12/26 02:33:55;;;;;;;16.95;12.30;;;2.70;57.90;;;;;;5013079;28;20813;-67
2020/12/26 02:36:23;;;;;;;16.75;12.20;;;2.70;66.10;;;;;;5013276;28;20413;-67
2020/12/26 02:38:49;;;;;;;15.45;12.55;;;2.70;22.30;;;;;;5012871;28;20412;-67
2020/12/26 02:41:16;;;;;;;15.23;13.13;;;2.70;1.00;;;;;;5012907;28;20475;-67
2020/12/26 02:43:43;;;;;;;17.35;13.68;;;2.60;16.80;;;;;;5012630;28;20909;-67
2020/12/26 02:46:09;;;;;;;16.25;13.90;;;2.60;5.70;;;;;;5012385;28;20746;-67
2020/12/26 02:48:35;;;;;;;17.45;15.40;;;2.60;11.50;;;;;;5012775;28;20444;-67
2020/12/26 02:51:01;;;;;;;20.47;14.30;;;2.50;1.00;;;;;;5012921;28;20413;-67
2020/12/26 02:53:27;;;;;;;19.65;14.75;;;2.70;11.90;;;;;;5012282;28;20439;-67
2020/12/26 02:55:53;;;;;;;23.02;14.68;;;2.60;1.00;;;;;;5012660;28;20833;-67
2020/12/26 02:58:21;;;;;;;21.50;15.57;;;2.50;1.00;;;;;;5012520;28;20413;-67
2020/12/26 03:00:48;;;;;;;26.17;15.60;;;2.50;1.00;;;;;;5012525;28;20429;-67
2020/12/26 03:03:14;;;;;;;19.20;15.40;;;2.50;1.00;;;;;;5012534;28;20424;-66
2020/12/26 03:05:40;;;;;;;17.60;15.65;;;2.50;1.00;;;;;;5012161;28;20417;-67
2020/12/26 03:08:06;;;;;;;19.08;15.88;;;2.60;1.00;;;;;;5012152;28;20439;-67
2020/12/26 03:10:32;;;;;;;18.00;16.02;;;2.50;1.00;;;;;;5012296;28;20432;-66
2020/12/26 03:12:58;;;;;;;18.75;15.90;;;2.50;1.00;;;;;;5011918;28;20978;-67
2020/12/26 03:15:26;;;;;;;22.00;17.25;;;2.50;1.00;;;;;;5011799;28;20416;-67
2020/12/26 03:17:53;;;;;;;22.52;17.25;;;2.50;1.00;;;;;;5012277;28;20419;-67
2020/12/26 03:20:19;;;;;;;23.85;18.27;;;2.50;1.00;;;;;;5012396;28;20424;-67
2020/12/26 03:22:45;;;;;;;22.97;18.27;;;2.50;1.00;;;;;;5012191;28;20782;-67
2020/12/26 03:25:11;;;;;;;24.27;17.02;;;2.50;1.00;;;;;;5012236;28;20463;-67
2020/12/26 03:27:38;;;;;;;21.85;16.77;;;2.50;1.00;;;;;;5011522;28;20413;-67
2020/12/26 03:30:05;;;;;;;22.13;17.20;;;2.50;1.00;;;;;;5012058;28;20793;-67
2020/12/26 03:32:32;;;;;;;19.83;15.85;;;2.50;1.00;;;;;;5011719;28;20923;-67
2020/12/26 03:34:58;;;;;;;18.17;15.80;;;2.50;17.90;;;;;;5011865;28;20881;-67
2020/12/26 03:37:24;;;;;;;19.58;15.90;;;2.50;1.00;;;;;;5011402;28;20430;-66
2020/12/26 03:39:50;;;;;;;24.35;15.73;;;2.50;1.00;;;;;;5011766;28;20420;-67
2020/12/26 03:42:16;;;;;;;19.38;15.90;;;2.50;1.00;;;;;;5011701;28;20483;-67
2020/12/26 03:44:42;;;;;;;20.20;14.55;;;2.60;1.00;;;;;;5012073;28;20413;-67
2020/12/26 03:47:10;;;;;;;18.70;14.47;;;2.50;1.00;;;;;;5011725;28;20900;-67
2020/12/26 03:49:37;;;;;;;16.73;13.40;;;2.50;1.00;;;;;;5011618;28;20480;-67
2020/12/26 03:52:04;;;;;;;18.20;14.47;;;2.50;1.00;;;;;;5011803;28;20417;-66
2020/12/26 03:54:30;;;;;;;17.83;14.00;;;2.50;1.00;;;;;;5012103;28;20416;-66
2020/12/26 03:56:56;;;;;;;14.35;12.95;;;2.50;1.00;;;;;;5011474;28;20766;-67
2020/12/26 03:59:22;;;;;;;14.23;12.63;;;2.50;1.00;;;;;;5011930;28;20791;-67
2020/12/26 04:01:48;;;;;;;14.20;12.27;;;2.50;1.00;;;;;;5011538;28;20416;-67
2020/12/26 04:04:14;;;;;;;16.30;12.43;;;2.60;1.00;;;;;;5011037;28;20421;-67
2020/12/26 04:06:42;;;;;;;15.80;11.80;;;2.60;1.00;;;;;;5011186;28;20420;-67
2020/12/26 04:09:08;;;;;;;14.60;11.63;;;2.60;1.00;;;;;;5011593;28;20448;-67
2020/12/26 04:11:34;;;;;;;13.07;11.20;;;2.60;1.00;;;;;;5011480;28;20420;-67
2020/12/26 04:14:00;;;;;;;14.93;11.02;;;2.60;1.00;;;;;;5011729;28;20420;-67
2020/12/26 04:16:27;;;;;;;13.95;11.55;;;2.60;1.00;;;;;;5012793;28;20412;-67
2020/12/26 04:18:53;;;;;;;15.52;10.65;;;2.60;1.00;;;;;;5012538;28;20409;-67
2020/12/26 04:21:21;;;;;;;13.00;10.90;;;2.70;1.00;;;;;;5011367;28;20416;-66
2020/12/26 04:23:48;;;;;;;13.48;11.00;;;2.70;1.00;;;;;;5011088;28;20412;-67
2020/12/26 04:26:14;;;;;;;14.45;10.95;;;2.70;1.00;;;;;;5011037;28;20420;-67
2020/12/26 04:28:40;;;;;;;13.50;10.57;;;2.80;1.00;;;;;;5011481;28;21050;-67
2020/12/26 04:31:06;;;;;;;13.55;10.98;;;2.70;1.00;;;;;;5011040;28;20420;-67
2020/12/26 04:33:32;;;;;;;14.15;11.38;;;2.70;1.00;;;;;;5011611;28;20417;-67
2020/12/26 04:35:58;;;;;;;13.35;11.48;;;2.70;1.00;;;;;;5011067;28;20417;-67
2020/12/26 04:38:24;;;;;;;14.63;11.48;;;2.70;1.00;;;;;;5010974;28;20424;-67
2020/12/26 04:40:51;;;;;;;14.63;11.20;;;2.70;1.00;;;;;;5011247;28;20416;-67
2020/12/26 04:43:17;;;;;;;13.15;11.45;;;2.60;1.00;;;;;;5010982;28;20421;-67
2020/12/26 04:45:44;;;;;;;16.33;11.80;;;2.60;1.00;;;;;;5010873;28;20420;-67
2020/12/26 04:48:14;;;;;;;13.60;12.20;;;2.60;1.00;;;;;;5010938;28;20413;-66
2020/12/26 04:50:46;;;;;;;14.85;11.68;;;2.70;1.00;;;;;;5010856;28;20425;-67
2020/12/26 04:53:15;;;;;;;17.17;13.95;;;2.70;1.00;;;;;;5011068;28;20416;-67
2020/12/26 04:55:46;;;;;;;20.00;15.57;;;2.70;1.00;;;;;;5010892;28;20416;-67
2020/12/26 04:58:13;;;;;;;17.45;14.75;;;2.80;1.00;;;;;;5010992;28;20451;-66
2020/12/26 05:00:39;;;;;;;23.17;17.63;;;2.70;1.00;;;;;;5010783;28;20467;-67
2020/12/26 05:03:08;;;;;;;26.08;19.17;;;2.80;1.00;;;;;;5010893;28;20470;-66
2020/12/26 05:05:34;;;;;;;26.70;18.98;;;2.80;1.00;;;;;;5010532;28;20828;-67
2020/12/26 05:08:03;;;;;;;23.70;18.53;;;2.80;1.00;;;;;;5010858;28;20429;-67
2020/12/26 05:10:29;;;;;;;26.90;20.60;;;2.80;1.00;;;;;;5010506;28;20432;-67
2020/12/26 05:12:55;;;;;;;25.70;21.35;;;2.80;1.00;;;;;;5010702;28;20828;-67
2020/12/26 05:15:23;;;;;;;27.13;22.67;;;2.80;1.00;;;;;;5011290;28;20427;-67
2020/12/26 05:17:49;;;;;;;24.83;21.15;;;2.80;1.00;;;;;;5013920;28;20416;-67
2020/12/26 05:20:15;;;;;;;28.40;22.70;;;2.90;1.00;;;;;;5013991;28;20412;-67
2020/12/26 05:22:41;;;;;;;26.80;22.17;;;2.90;1.00;;;;;;5014246;28;20462;-66
2020/12/26 05:25:08;;;;;;;26.70;22.10;;;3.00;1.00;;;;;;5014159;28;20789;-67
2020/12/26 05:27:35;;;;;;;27.30;21.20;;;3.00;1.00;;;;;;5013677;28;20420;-66
2020/12/26 05:30:01;;;;;;;28.80;22.63;;;3.00;1.00;;;;;;5014144;28;20782;-67
2020/12/26 05:32:28;;;;;;;29.50;21.90;;;3.00;1.00;;;;;;5013996;28;20419;-67
2020/12/26 05:35:02;;;;;;;31.67;22.30;;;3.00;1.00;;;;;;5014292;28;20421;-67
2020/12/26 05:37:30;;;;;;;24.90;21.77;;;3.00;1.00;;;;;;5013835;28;20417;-67
2020/12/26 05:39:59;;;;;;;29.23;21.70;;;3.10;1.00;;;;;;5013829;28;20450;-66
2020/12/26 05:42:26;;;;;;;25.52;22.65;;;3.10;1.00;;;;;;5014018;28;20413;-67
2020/12/26 05:44:52;;;;;;;30.20;23.35;;;3.10;1.00;;;;;;5013927;28;20463;-66
2020/12/26 05:47:25;;;;;;;26.63;22.30;;;3.10;1.00;;;;;;5013825;28;20417;-67
2020/12/26 05:49:52;;;;;;;28.52;22.15;;;3.00;1.00;;;;;;5013914;28;20520;-67
2020/12/26 05:52:19;;;;;;;28.30;21.92;;;3.00;1.00;;;;;;5013651;28;20758;-67
2020/12/26 05:54:49;;;;;;;27.73;22.23;;;3.00;1.00;;;;;;5013958;28;20416;-67
2020/12/26 05:57:17;;;;;;;26.05;20.27;;;3.10;1.00;;;;;;5013630;28;20428;-67
2020/12/26 05:59:47;;;;;;;24.23;19.50;;;3.10;1.00;;;;;;5013473;28;20417;-67
2020/12/26 06:02:27;;;;;;;24.27;19.13;;;3.20;1.00;;;;;;5014291;28;20413;-66
2020/12/26 06:04:56;;;;;;;21.90;18.77;;;3.20;1.00;;;;;;5014074;28;20944;-67
2020/12/26 06:07:25;;;;;;;18.63;15.65;;;3.20;1.00;;;;;;5013847;28;20432;-67
2020/12/26 06:09:53;;;;;;;19.48;16.00;;;3.20;1.00;;;;;;5013880;28;20559;-67
2020/12/26 06:12:21;;;;;;;17.70;15.80;;;3.30;1.00;;;;;;5013823;28;20475;-67
2020/12/26 06:14:48;;;;;;;18.02;15.75;;;3.30;1.00;;;;;;5013402;28;20420;-66
2020/12/26 06:17:23;;;;;;;17.65;15.70;;;3.20;1.00;;;;;;5013224;28;20421;-67
2020/12/26 06:19:57;;;;;;;18.48;15.40;;;3.20;1.00;;;;;;5013132;28;20409;-66
2020/12/26 06:22:23;;;;;;;18.00;14.60;;;3.30;1.00;;;;;;5013479;28;20919;-66
2020/12/26 06:24:50;;;;;;;18.60;13.90;;;3.20;1.00;;;;;;5012735;28;20424;-66
2020/12/26 06:27:16;;;;;;;17.50;14.18;;;3.30;1.00;;;;;;5012052;28;20897;-66
2020/12/26 06:29:43;;;;;;;18.10;14.73;;;3.20;1.00;;;;;;5012979;28;20929;-67
2020/12/26 06:32:11;;;;;;;17.58;14.63;;;3.20;1.00;;;;;;5013126;28;20417;-66
2020/12/26 06:34:40;;;;;;;16.83;14.23;;;3.20;1.00;;;;;;5012959;28;20413;-66
2020/12/26 06:37:07;;;;;;;17.90;14.17;;;3.20;1.00;;;;;;5012353;28;20576;-68
2020/12/26 06:39:34;;;;;;;16.63;14.20;;;3.20;1.00;;;;;;5012778;28;20833;-66
2020/12/26 06:42:14;;;;;;;15.05;13.45;;;3.30;1.00;;;;;;5012867;28;20447;-66
2020/12/26 06:44:41;;;;;;;17.45;12.95;;;3.30;1.00;;;;;;5012718;28;20417;-66
2020/12/26 06:47:07;;;;;;;15.80;14.07;;;3.40;1.00;;;;;;5012560;28;20447;-66
2020/12/26 06:49:33;;;;;;;16.92;13.70;;;3.30;1.00;;;;;;5012302;28;20432;-66
2020/12/26 06:52:00;;;;;;;15.63;13.60;;;3.30;1.00;;;;;;5012564;28;20420;-66
2020/12/26 06:54:45;;;;;;;17.90;14.98;;;3.20;1.00;;;;;;5013546;28;20471;-65
2020/12/26 06:57:36;;;;;;;16.58;14.23;;;3.20;1.00;;;;;;5012519;28;20446;-66
2020/12/26 07:00:03;;;;;;;19.30;15.50;;;3.20;1.00;;;;;;5012418;28;20412;-66
2020/12/26 07:02:29;;;;;;;22.20;16.50;;;3.10;1.00;;;;;;5013248;28;20506;-67
2020/12/26 07:04:55;;;;;;;20.25;16.73;;;3.20;1.00;;;;;;5012925;28;20417;-66
2020/12/26 07:07:37;;;;;;;22.50;17.48;;;3.20;1.00;;;;;;5011949;28;20421;-66
2020/12/26 07:10:04;;;;;;;19.73;17.65;;;3.20;1.00;;;;;;5012428;28;20512;-67
2020/12/26 07:12:42;;;;;;;20.33;17.63;;;3.20;1.00;;;;;;5012295;28;20417;-66
2020/12/26 07:15:08;;;;;;;23.17;19.60;;;3.30;1.00;;;;;;5012374;28;20420;-67
2020/12/26 07:17:34;;;;;;;22.42;17.30;;;3.20;1.00;;;;;;5011968;28;20793;-67
2020/12/26 07:20:00;;;;;;;21.00;17.40;;;3.20;1.00;;;;;;5012081;28;20408;-67
2020/12/26 07:22:27;;;;;;;19.55;17.02;;;3.20;1.00;;;;;;5012480;28;20420;-67
2020/12/26 07:24:55;;;;;;;21.05;16.58;;;3.20;1.00;;;;;;5014009;28;20416;-67
2020/12/26 07:27:32;;;;;;;22.60;18.33;;;3.10;1.00;;;;;;5013692;28;20781;-67
2020/12/26 07:30:11;;;;;;;21.02;17.20;;;3.10;1.00;;;;;;5011939;28;20431;-67
2020/12/26 07:32:45;;;;;;;23.77;17.02;;;3.10;1.00;;;;;;5012106;28;20420;-66
2020/12/26 07:35:30;;;;;;;21.40;16.55;;;3.10;1.00;;;;;;5011925;28;20419;-66
2020/12/26 07:37:58;;;;;;;21.38;17.42;;;3.00;1.00;;;;;;5012252;28;20420;-67
2020/12/26 07:40:25;;;;;;;18.67;15.40;;;3.10;1.00;;;;;;5012155;28;20409;-66
2020/12/26 07:42:52;;;;;;;21.63;16.65;;;3.10;1.00;;;;;;5011995;28;20412;-66
2020/12/26 07:45:21;;;;;;;21.73;16.33;;;3.10;1.00;;;;;;5011721;28;20777;-67
2020/12/26 07:47:48;;;;;;;20.73;15.40;;;3.10;1.00;;;;;;5011187;28;20423;-66
2020/12/26 07:50:16;;;;;;;17.75;14.82;;;3.10;1.00;;;;;;5011267;28;20984;-67
2020/12/26 07:52:45;;;;;;;19.20;16.10;;;3.00;1.00;;;;;;5011539;28;20432;-66
2020/12/26 07:55:11;;;;;;;22.25;16.70;;;3.00;1.00;;;;;;5011723;28;20417;-66
2020/12/26 07:57:38;;;;;;;23.00;16.30;;;2.90;1.00;;;;;;5011408;28;20428;-68
2020/12/26 08:00:05;;;;;;;20.05;16.45;;;3.00;1.00;;;;;;5011483;28;20429;-66
2020/12/26 08:02:31;;;;;;;22.42;16.60;;;2.90;1.00;;;;;;5011585;28;20416;-67
2020/12/26 08:04:58;;;;;;;18.48;16.27;;;3.00;1.00;;;;;;5011432;28;20888;-66
2020/12/26 08:07:24;;;;;;;20.13;15.45;;;3.00;1.00;;;;;;5011446;28;20413;-66
2020/12/26 08:09:51;;;;;;;20.17;16.17;;;3.00;1.00;;;;;;5011079;28;20436;-67
2020/12/26 08:12:17;;;;;;;19.30;15.55;;;3.00;1.00;;;;;;5011094;28;20412;-66
2020/12/26 08:14:44;;;;;;;20.80;15.88;;;3.00;1.00;;;;;;5011054;28;20416;-66
2020/12/26 08:17:11;;;;;;;21.00;16.08;;;3.00;1.00;;;;;;5010479;28;20412;-66
2020/12/26 08:19:38;;;;;;;19.27;14.80;;;3.00;1.00;;;;;;5011481;28;20732;-66
2020/12/26 08:22:04;;;;;;;24.30;16.38;;;3.00;1.00;;;;;;5011067;28;20452;-66
2020/12/26 08:24:30;;;;;;;20.65;16.70;;;3.10;1.00;;;;;;5011012;28;20886;-66
2020/12/26 08:26:57;;;;;;;22.52;17.20;;;3.00;1.00;;;;;;5010764;28;20417;-66
2020/12/26 08:29:26;;;;;;;23.33;15.70;;;3.10;1.00;;;;;;5010993;28;20487;-66
2020/12/26 08:31:59;;;;;;;19.83;16.38;;;3.10;1.00;;;;;;5011054;28;20894;-66
2020/12/26 08:34:38;;;;;;;21.67;16.42;;;3.20;1.00;;;;;;5010666;28;20413;-67
2020/12/26 08:37:12;;;;;;;20.27;16.52;;;3.10;1.00;;;;;;5010752;28;20428;-67
2020/12/26 08:39:40;;;;;;;18.20;15.30;;;3.10;1.00;;;;;;5010950;28;20464;-66
2020/12/26 08:42:12;;;;;;;19.17;15.15;;;3.20;1.00;;;;;;5010945;28;20420;-66
2020/12/26 08:44:38;;;;;;;18.60;14.90;;;3.20;1.00;;;;;;5011084;28;21156;-66
2020/12/26 08:47:06;;;;;;;16.67;13.95;;;3.20;1.00;;;;;;5010758;28;20479;-67
2020/12/26 08:49:34;;;;;;;15.50;13.50;;;3.20;99.90;;;;;;5010942;28;20455;-65
2020/12/26 08:52:01;;;;;;;16.63;13.50;;;3.10;99.90;;;;;;5014292;28;20416;-66
2020/12/26 08:54:27;;;;;;;16.10;12.50;;;3.10;99.90;;;;;;5014686;28;20419;-67
2020/12/26 08:56:53;;;;;;;16.50;12.07;;;3.00;99.90;;;;;;5014041;28;20424;-66
2020/12/26 08:59:26;;;;;;;16.80;11.90;;;3.20;99.90;;;;;;5014808;28;20417;-66
2020/12/26 09:01:54;;;;;;;14.63;11.30;;;3.30;99.90;;;;;;5014623;28;20420;-67
2020/12/26 09:04:20;;;;;;;13.27;10.95;;;3.20;99.90;;;;;;5014442;28;20419;-67
2020/12/26 09:06:47;;;;;;;12.23;9.97;;;3.30;99.90;;;;;;5014272;28;20531;-66
2020/12/26 09:09:15;;;;;;;13.88;11.07;;;3.30;99.90;;;;;;5014192;28;20451;-66
2020/12/26 09:11:41;;;;;;;11.80;10.05;;;3.40;99.90;;;;;;5014621;28;20809;-66
2020/12/26 09:14:15;;;;;;;11.45;10.02;;;3.40;99.90;;;;;;4994328;28;20553;-66
2020/12/26 09:16:41;;;;;;;10.73;9.30;;;3.30;99.90;;;;;;4994273;28;20422;-66
2020/12/26 09:19:08;;;;;;;11.88;9.70;;;3.30;99.90;;;;;;4995249;28;20549;-66
2020/12/26 09:21:34;;;;;;;11.48;9.95;;;3.40;99.90;;;;;;4994483;28;20414;-65
2020/12/26 09:24:01;;;;;;;10.75;9.30;;;3.40;99.90;;;;;;4998647;28;20422;-65
2020/12/26 09:26:29;;;;;;;10.55;8.93;;;3.40;99.90;;;;;;5016962;28;20421;-66
2020/12/26 09:28:56;;;;;;;12.35;8.95;;;3.30;99.90;;;;;;5016777;28;20988;-66
2020/12/26 09:31:24;;;;;;;12.38;9.60;;;3.40;99.90;;;;;;5015886;28;20420;-65
2020/12/26 09:33:51;;;;;;;12.05;9.65;;;3.50;99.90;;;;;;5016055;28;20417;-65
2020/12/26 09:36:18;;;;;;;10.80;9.20;;;3.50;99.90;;;;;;5013406;28;20474;-65
2020/12/26 09:38:45;;;;;;;11.60;9.70;;;3.50;99.90;;;;;;5014829;28;20436;-64
2020/12/26 09:41:17;;;;;;;11.38;9.20;;;3.60;99.90;;;;;;5016174;28;20413;-65
2020/12/26 09:43:45;;;;;;;12.82;10.30;;;3.70;99.90;;;;;;5016393;28;20479;-64
2020/12/26 09:46:11;;;;;;;12.40;9.33;;;3.80;99.90;;;;;;5016358;28;20421;-65
2020/12/26 09:48:38;;;;;;;11.00;9.32;;;3.80;76.50;;;;;;5016438;28;20428;-65
2020/12/26 09:51:09;;;;;;;11.23;9.65;;;3.80;40.00;;;;;;5015521;28;20471;-65
2020/12/26 09:53:36;;;;;;;11.82;10.05;;;3.70;43.20;;;;;;5017426;28;20413;-65
2020/12/26 09:56:06;;;;;;;11.50;10.30;;;3.70;37.60;;;;;;5015691;28;20926;-68
2020/12/26 09:58:32;;;;;;;12.50;9.80;;;3.80;33.80;;;;;;5014760;28;20412;-66
2020/12/26 10:00:59;;;;;;;11.57;9.40;;;3.80;13.30;;;;;;5015632;28;20416;-66
2020/12/26 10:03:25;;;;;;;14.65;10.50;;;3.80;33.00;;;;;;5013837;28;20416;-66
2020/12/26 10:05:51;;;;;;;12.53;11.23;;;3.90;29.60;;;;;;5014374;28;20424;-66
2020/12/26 10:08:17;;;;;;;13.40;9.95;;;3.70;12.10;;;;;;5013373;28;20773;-65
2020/12/26 10:10:43;;;;;;;11.30;9.23;;;3.70;9.90;;;;;;5013477;28;20424;-66
2020/12/26 10:13:09;;;;;;;13.50;10.10;;;3.70;19.90;;;;;;5015832;28;20416;-65
2020/12/26 10:15:36;;;;;;;12.25;8.95;;;3.80;2.80;;;;;;5016715;28;20421;-65
2020/12/26 10:18:02;;;;;;;12.13;9.15;;;3.90;1.00;;;;;;5015234;28;20838;-67
2020/12/26 10:20:29;;;;;;;14.32;9.05;;;3.90;1.00;;;;;;5014420;28;20417;-68
2020/12/26 10:22:55;;;;;;;12.93;8.90;;;3.90;1.00;;;;;;5013161;28;20420;-66
2020/12/26 10:25:24;;;;;;;10.05;8.57;;;3.90;1.00;;;;;;5013486;28;20420;-66
2020/12/26 10:27:50;;;;;;;12.93;9.65;;;4.00;1.00;;;;;;5012513;28;20420;-67
2020/12/26 10:30:17;;;;;;;13.50;8.90;;;4.10;1.00;;;;;;5012694;28;20864;-67
2020/12/26 10:32:44;;;;;;;11.82;8.43;;;4.00;1.00;;;;;;5012334;28;20425;-67
2020/12/26 10:35:10;;;;;;;10.60;8.95;;;4.00;1.00;;;;;;5012753;28;20448;-66
2020/12/26 10:37:36;;;;;;;11.95;8.43;;;4.00;1.00;;;;;;5012180;28;20417;-67
2020/12/26 10:40:03;;;;;;;10.95;8.40;;;4.10;1.00;;;;;;5012867;28;20427;-65
2020/12/26 10:42:29;;;;;;;11.07;8.80;;;4.20;1.00;;;;;;5013975;28;20460;-66
2020/12/26 10:44:55;;;;;;;11.35;8.48;;;4.10;1.00;;;;;;5012854;28;20417;-66
2020/12/26 10:47:21;;;;;;;12.70;8.07;;;4.00;1.00;;;;;;5012853;28;20454;-65
2020/12/26 10:49:48;;;;;;;10.05;8.10;;;4.00;1.00;;;;;;5012470;28;20424;-66
2020/12/26 10:52:14;;;;;;;10.18;8.50;;;4.00;1.00;;;;;;5012696;28;20421;-66
2020/12/26 10:54:40;;;;;;;12.35;9.70;;;4.00;1.00;;;;;;5012849;28;20416;-66
2020/12/26 10:57:07;;;;;;;8.75;7.78;;;4.10;1.00;;;;;;5012167;28;20431;-66
2020/12/26 10:59:33;;;;;;;12.25;7.65;;;4.20;1.00;;;;;;5012223;28;20416;-66
2020/12/26 11:01:59;;;;;;;10.93;7.30;;;4.20;1.00;;;;;;5012445;28;20781;-66
2020/12/26 11:04:25;;;;;;;10.70;6.70;;;4.20;1.00;;;;;;5012588;28;20491;-66
2020/12/26 11:06:52;;;;;;;10.18;7.18;;;4.40;1.00;;;;;;5012115;28;20894;-67
2020/12/26 11:09:18;;;;;;;8.30;6.05;;;4.50;1.00;;;;;;5012035;28;20415;-66
2020/12/26 11:11:48;;;;;;;9.43;6.55;;;4.50;1.00;;;;;;5012291;28;20416;-66
2020/12/26 11:14:15;;;;;;;8.80;6.43;;;4.50;1.00;;;;;;5011334;28;20912;-66
2020/12/26 11:16:41;;;;;;;9.48;6.47;;;4.40;1.00;;;;;;5012308;28;20424;-66
2020/12/26 11:19:07;;;;;;;8.35;6.10;;;4.40;1.00;;;;;;5012398;28;20420;-67
2020/12/26 11:21:33;;;;;;;9.98;6.35;;;4.50;1.00;;;;;;5013195;28;20789;-66
2020/12/26 11:24:00;;;;;;;6.90;6.18;;;4.40;1.00;;;;;;5012395;28;20806;-66
2020/12/26 11:26:27;;;;;;;9.98;6.60;;;4.50;1.00;;;;;;5011872;28;20412;-66
2020/12/26 11:28:53;;;;;;;9.97;5.43;;;4.50;1.00;;;;;;5012798;28;20917;-65
2020/12/26 11:31:23;;;;;;;8.93;5.60;;;4.40;1.00;;;;;;5012320;28;20898;-65
2020/12/26 11:33:49;;;;;;;7.43;5.30;;;4.50;1.00;;;;;;5012472;28;20424;-68
2020/12/26 11:36:20;;;;;;;7.50;5.38;;;4.40;1.00;;;;;;5013648;28;20417;-66
2020/12/26 11:38:46;;;;;;;6.80;5.18;;;4.40;1.00;;;;;;5012328;28;20425;-66
2020/12/26 11:41:16;;;;;;;6.05;5.03;;;4.60;1.00;;;;;;5013149;28;20829;-66
2020/12/26 11:43:42;;;;;;;8.60;6.00;;;4.70;1.00;;;;;;5012547;28;20463;-67
2020/12/26 11:46:09;;;;;;;7.30;5.17;;;4.70;1.00;;;;;;5012262;28;20425;-67
2020/12/26 11:48:35;;;;;;;13.68;6.47;;;4.80;1.00;;;;;;5013546;28;20481;-66
2020/12/26 11:51:01;;;;;;;7.47;5.70;;;4.70;1.00;;;;;;5013422;28;20499;-66
2020/12/26 11:53:27;;;;;;;7.55;4.82;;;4.80;1.00;;;;;;5011881;28;20881;-67
2020/12/26 11:55:53;;;;;;;5.72;4.40;;;4.70;1.00;;;;;;5011249;28;20420;-66
2020/12/26 11:58:23;;;;;;;7.00;4.55;;;4.70;99.90;;;;;;5011679;28;20412;-66
2020/12/26 12:00:50;;;;;;;8.98;5.70;;;4.80;1.00;;;;;;5011910;28;20416;-65
2020/12/26 12:03:16;;;;;;;6.50;5.13;;;5.00;1.00;;;;;;5012126;28;20420;-66
2020/12/26 12:05:42;;;;;;;8.05;4.70;;;5.10;1.00;;;;;;5013446;28;20906;-66
2020/12/26 12:08:08;;;;;;;6.13;4.50;;;5.10;99.90;;;;;;5013704;28;20421;-65
2020/12/26 12:10:34;;;;;;;8.48;5.30;;;5.20;99.90;;;;;;5014585;28;20485;-65
2020/12/26 12:13:01;;;;;;;6.00;5.10;;;5.10;99.90;;;;;;5014533;28;20490;-65
2020/12/26 12:15:28;;;;;;;4.43;3.58;;;5.10;99.90;;;;;;5015338;28;20427;-65
2020/12/26 12:17:54;;;;;;;6.32;3.80;;;5.00;99.90;;;;;;5013671;28;20443;-66
2020/12/26 12:20:20;;;;;;;4.60;3.80;;;4.90;99.90;;;;;;5014644;28;20878;-67
2020/12/26 12:22:46;;;;;;;5.43;3.83;;;4.90;99.90;;;;;;5012995;28;20786;-66
2020/12/26 12:25:12;;;;;;;5.70;4.05;;;4.90;99.90;;;;;;5013947;28;20424;-65
2020/12/26 12:27:38;;;;;;;4.65;3.70;;;4.90;99.90;;;;;;5015809;28;20413;-66
2020/12/26 12:30:04;;;;;;;4.80;3.65;;;4.90;99.90;;;;;;5016992;28;20462;-65
2020/12/26 12:32:31;;;;;;;5.73;3.80;;;4.90;99.90;;;;;;5016198;28;20428;-65
2020/12/26 12:34:57;;;;;;;4.82;3.55;;;4.90;99.90;;;;;;5019207;28;20412;-64
2020/12/26 12:37:23;;;;;;;4.47;3.40;;;5.00;99.90;;;;;;5020501;28;20781;-64
2020/12/26 12:39:50;;;;;;;5.28;3.75;;;5.00;99.90;;;;;;4996687;28;20426;-64
2020/12/26 12:42:16;;;;;;;6.13;3.30;;;5.00;99.90;;;;;;4996283;28;20426;-66
2020/12/26 12:44:42;;;;;;;5.50;3.73;;;4.90;99.90;;;;;;4995181;28;20484;-66
2020/12/26 12:47:08;;;;;;;5.30;3.50;;;5.00;99.90;;;;;;4997396;28;20422;-64
2020/12/26 12:49:35;;;;;;;5.22;2.90;;;4.90;99.90;;;;;;4999836;28;20435;-66